TimePDT,TemperatureF,Dew PointF,Humidity,Sea Level PressureIn,VisibilityMPH,Wind Direction,Wind SpeedMPH,Gust SpeedMPH,PrecipitationIn,Events,Conditions,WindDirDegrees,DateUTC
12:53 AM,84.0,37.9,19,29.77,10.0,Calm,Calm,-,N/A,,Clear,0,2013-08-03 07:53:00
1:53 AM,82.0,37.9,21,29.77,10.0,Calm,Calm,-,N/A,,Clear,0,2013-08-03 08:53:00
2:53 AM,78.1,44.1,30,29.76,10.0,WSW,3.5,-,N/A,,Clear,240,2013-08-03 09:53:00
3:53 AM,78.1,45.0,31,29.76,10.0,WSW,5.8,-,N/A,,Clear,250,2013-08-03 10:53:00
4:53 AM,82.0,39.0,22,29.78,10.0,South,5.8,-,N/A,,Clear,190,2013-08-03 11:53:00
5:53 AM,78.1,37.9,24,29.79,10.0,Calm,Calm,-,N/A,,Clear,0,2013-08-03 12:53:00
6:53 AM,77.0,43.0,30,29.82,10.0,Calm,Calm,-,N/A,,Clear,0,2013-08-03 13:53:00
7:53 AM,82.9,43.0,24,29.83,10.0,Calm,Calm,-,N/A,,Clear,0,2013-08-03 14:53:00
8:53 AM,89.1,53.1,29,29.84,10.0,Calm,Calm,-,N/A,,Clear,0,2013-08-03 15:53:00
9:53 AM,91.9,55.0,29,29.84,10.0,Variable,5.8,-,N/A,,Clear,0,2013-08-03 16:53:00
10:53 AM,97.0,50.0,20,29.84,10.0,NE,4.6,-,N/A,,Clear,50,2013-08-03 17:53:00
11:53 AM,97.0,50.0,20,29.83,10.0,Variable,3.5,-,N/A,,Clear,0,2013-08-03 18:53:00
12:53 PM,99.0,48.9,18,29.81,10.0,Variable,3.5,-,N/A,,Clear,0,2013-08-03 19:53:00
1:53 PM,100.9,46.0,15,29.79,10.0,Calm,Calm,-,N/A,,Clear,0,2013-08-03 20:53:00
2:53 PM,104.0,42.1,12,29.77,10.0,Variable,3.5,-,N/A,,Clear,0,2013-08-03 21:53:00
3:53 PM,104.0,48.0,15,29.74,10.0,Calm,Calm,-,N/A,,Clear,0,2013-08-03 22:53:00
4:53 PM,106.0,50.0,15,29.73,10.0,NNE,5.8,-,N/A,,Clear,30,2013-08-03 23:53:00
5:53 PM,105.1,51.1,16,29.71,10.0,Calm,Calm,-,N/A,,Clear,0,2013-08-04 00:53:00
6:53 PM,102.9,46.9,15,29.71,10.0,Calm,Calm,-,N/A,,Clear,0,2013-08-04 01:53:00
7:53 PM,100.9,46.9,16,29.72,10.0,Calm,Calm,-,N/A,,Clear,0,2013-08-04 02:53:00
8:53 PM,89.1,48.0,24,29.74,10.0,West,10.4,-,N/A,,Clear,260,2013-08-04 03:53:00
9:53 PM,86.0,46.9,26,29.77,10.0,West,5.8,-,N/A,,Clear,280,2013-08-04 04:53:00
10:53 PM,86.0,43.0,22,29.77,10.0,West,9.2,-,N/A,,Clear,280,2013-08-04 05:53:00
11:53 PM,86.0,37.9,18,29.77,10.0,WSW,10.4,-,N/A,,Clear,250,2013-08-04 06:53:00